Garden City, Kansas
Current Conditions -  °F | °C
As of 1:08 PM on Thursday 23 Oct 2014 (Local Time) from KGCK Reporting Station
Overcast Overcast  
Wind Chill: 66°   Ceiling: 1600
Heat Index: 66°   Visibility: 7mi
Dew Point: 57°   Wind: 8mph
Humidity: 73%   Direction: 130°SE
Pressure: 30.12"   Gusts: NA
Location:  37.97°N, 100.87°W
Report Text: KGCK 231808Z 13007KT 7SM OVC016 19/14 A3012 RMK AO2 T01890139
Loading
Personal Weather Stations






























Interactive Weather Map New forecast layout! Learn more

10-Day Weather Forecast

Advertisements
Track Severe Weather on mobile